Terminal Aerodrome Forecast
Issued by NWS Sioux Falls, SD

Home | Current Version | Previous Version | Text Only | Print | Product List | Glossary On
Versions: 1 2 3 4 5 6 7 8 9 10 11 12 13 14 15 16 17 18 19 20 21 22 23 24 25 26 27 28 29 30 31 32 33 34 35 36 37 38
037
FTUS43 KFSD 242039 AAC
TAFSUX
TAF AMD
KSUX 242039Z 2421/2518 16013G23KT P6SM SHRA OVC040
      TEMPO 2421/2422 5SM -TSRA OVC025CB
     FM250000 18008KT P6SM VCTS BKN070CB
     FM250100 18006KT P6SM BKN060
     FM250600 24005KT P6SM SCT070
     FM250900 30008KT P6SM SCT150
     FM251400 30012KT P6SM FEW250=

USA.gov is the U.S. government's official web portal to all federal, state and local government web resources and services.